sensor_id;sensor_type;location;lat;lon;timestamp;P1;durP1;ratioP1;P2;durP2;ratioP2
12312;SDS011;6220;53.580;9.758;2023-08-20T00:00:32;10.00;;;5.50;;
12312;SDS011;6220;53.580;9.758;2023-08-20T00:03:11;9.23;;;5.43;;
12312;SDS011;6220;53.580;9.758;2023-08-20T00:05:38;9.63;;;5.13;;
12312;SDS011;6220;53.580;9.758;2023-08-20T00:08:05;14.10;;;5.97;;
12312;SDS011;6220;53.580;9.758;2023-08-20T00:10:31;11.10;;;5.90;;
12312;SDS011;6220;53.580;9.758;2023-08-20T00:12:56;11.60;;;6.37;;
12312;SDS011;6220;53.580;9.758;2023-08-20T00:15:22;10.33;;;6.23;;
12312;SDS011;6220;53.580;9.758;2023-08-20T00:17:51;12.97;;;6.03;;
12312;SDS011;6220;53.580;9.758;2023-08-20T00:20:17;15.63;;;6.50;;
12312;SDS011;6220;53.580;9.758;2023-08-20T00:22:43;11.93;;;5.80;;
12312;SDS011;6220;53.580;9.758;2023-08-20T00:25:10;11.13;;;6.63;;
12312;SDS011;6220;53.580;9.758;2023-08-20T00:27:39;12.17;;;6.30;;
12312;SDS011;6220;53.580;9.758;2023-08-20T00:30:05;11.43;;;6.10;;
12312;SDS011;6220;53.580;9.758;2023-08-20T00:32:31;14.27;;;5.60;;
12312;SDS011;6220;53.580;9.758;2023-08-20T00:34:56;13.73;;;6.17;;
12312;SDS011;6220;53.580;9.758;2023-08-20T00:37:22;10.33;;;5.97;;
12312;SDS011;6220;53.580;9.758;2023-08-20T00:39:47;10.97;;;5.57;;
12312;SDS011;6220;53.580;9.758;2023-08-20T00:42:13;18.43;;;7.07;;
12312;SDS011;6220;53.580;9.758;2023-08-20T00:44:42;11.27;;;6.50;;
12312;SDS011;6220;53.580;9.758;2023-08-20T00:47:09;11.97;;;6.27;;
12312;SDS011;6220;53.580;9.758;2023-08-20T00:49:35;10.23;;;5.50;;
12312;SDS011;6220;53.580;9.758;2023-08-20T00:52:02;15.80;;;6.27;;
12312;SDS011;6220;53.580;9.758;2023-08-20T00:54:28;12.83;;;6.97;;
12312;SDS011;6220;53.580;9.758;2023-08-20T00:56:54;10.93;;;6.00;;
12312;SDS011;6220;53.580;9.758;2023-08-20T00:59:20;13.13;;;6.20;;
12312;SDS011;6220;53.580;9.758;2023-08-20T01:01:45;13.30;;;6.03;;
12312;SDS011;6220;53.580;9.758;2023-08-20T01:04:12;9.53;;;5.87;;
12312;SDS011;6220;53.580;9.758;2023-08-20T01:12:24;10.87;;;5.97;;
12312;SDS011;6220;53.580;9.758;2023-08-20T01:14:49;8.93;;;5.40;;
12312;SDS011;6220;53.580;9.758;2023-08-20T01:17:14;12.67;;;5.87;;
12312;SDS011;6220;53.580;9.758;2023-08-20T01:19:40;7.87;;;5.73;;
12312;SDS011;6220;53.580;9.758;2023-08-20T01:30:32;11.23;;;5.77;;
12312;SDS011;6220;53.580;9.758;2023-08-20T01:32:57;10.73;;;6.30;;
12312;SDS011;6220;53.580;9.758;2023-08-20T01:35:24;7.97;;;5.33;;
12312;SDS011;6220;53.580;9.758;2023-08-20T01:37:50;9.87;;;5.70;;
12312;SDS011;6220;53.580;9.758;2023-08-20T01:40:16;10.20;;;5.57;;
12312;SDS011;6220;53.580;9.758;2023-08-20T01:42:41;10.67;;;5.60;;
12312;SDS011;6220;53.580;9.758;2023-08-20T01:45:07;9.07;;;5.27;;
12312;SDS011;6220;53.580;9.758;2023-08-20T01:47:33;10.87;;;5.43;;
12312;SDS011;6220;53.580;9.758;2023-08-20T01:49:58;8.90;;;5.13;;
12312;SDS011;6220;53.580;9.758;2023-08-20T01:52:24;8.70;;;6.00;;
12312;SDS011;6220;53.580;9.758;2023-08-20T01:54:50;10.40;;;6.13;;
12312;SDS011;6220;53.580;9.758;2023-08-20T01:57:15;8.37;;;5.70;;
12312;SDS011;6220;53.580;9.758;2023-08-20T01:59:41;7.23;;;5.23;;
12312;SDS011;6220;53.580;9.758;2023-08-20T02:02:07;10.63;;;5.50;;
12312;SDS011;6220;53.580;9.758;2023-08-20T02:04:32;12.30;;;6.40;;
12312;SDS011;6220;53.580;9.758;2023-08-20T02:06:59;11.53;;;6.73;;
12312;SDS011;6220;53.580;9.758;2023-08-20T02:09:25;14.93;;;7.33;;
12312;SDS011;6220;53.580;9.758;2023-08-20T02:11:50;12.63;;;8.80;;
12312;SDS011;6220;53.580;9.758;2023-08-20T02:14:16;11.80;;;7.43;;
12312;SDS011;6220;53.580;9.758;2023-08-20T02:16:43;16.57;;;8.93;;
12312;SDS011;6220;53.580;9.758;2023-08-20T02:19:09;12.37;;;8.13;;
12312;SDS011;6220;53.580;9.758;2023-08-20T02:21:34;11.93;;;8.60;;
12312;SDS011;6220;53.580;9.758;2023-08-20T02:24:00;13.10;;;8.67;;
12312;SDS011;6220;53.580;9.758;2023-08-20T02:26:25;13.63;;;9.10;;
12312;SDS011;6220;53.580;9.758;2023-08-20T02:28:51;11.57;;;8.47;;
12312;SDS011;6220;53.580;9.758;2023-08-20T02:31:16;10.43;;;8.13;;
12312;SDS011;6220;53.580;9.758;2023-08-20T02:33:41;11.20;;;8.53;;
12312;SDS011;6220;53.580;9.758;2023-08-20T02:36:07;13.60;;;8.70;;
12312;SDS011;6220;53.580;9.758;2023-08-20T02:38:32;11.03;;;8.27;;
12312;SDS011;6220;53.580;9.758;2023-08-20T02:40:58;9.17;;;7.17;;
12312;SDS011;6220;53.580;9.758;2023-08-20T02:43:23;9.40;;;8.00;;
12312;SDS011;6220;53.580;9.758;2023-08-20T02:45:48;12.83;;;7.33;;
12312;SDS011;6220;53.580;9.758;2023-08-20T02:48:14;7.70;;;6.90;;
12312;SDS011;6220;53.580;9.758;2023-08-20T02:50:39;6.43;;;5.83;;
12312;SDS011;6220;53.580;9.758;2023-08-20T02:53:05;8.43;;;7.27;;
12312;SDS011;6220;53.580;9.758;2023-08-20T02:55:31;13.43;;;7.50;;
12312;SDS011;6220;53.580;9.758;2023-08-20T02:57:57;9.73;;;7.00;;
12312;SDS011;6220;53.580;9.758;2023-08-20T03:00:23;9.93;;;6.77;;
12312;SDS011;6220;53.580;9.758;2023-08-20T03:02:48;16.00;;;7.10;;
12312;SDS011;6220;53.580;9.758;2023-08-20T03:05:13;13.87;;;7.07;;
12312;SDS011;6220;53.580;9.758;2023-08-20T03:07:39;7.33;;;6.63;;
12312;SDS011;6220;53.580;9.758;2023-08-20T03:10:05;17.53;;;7.83;;
12312;SDS011;6220;53.580;9.758;2023-08-20T03:12:31;10.77;;;6.13;;
12312;SDS011;6220;53.580;9.758;2023-08-20T03:14:56;8.47;;;6.53;;
12312;SDS011;6220;53.580;9.758;2023-08-20T03:17:22;13.63;;;7.10;;
12312;SDS011;6220;53.580;9.758;2023-08-20T03:19:55;8.03;;;7.23;;
12312;SDS011;6220;53.580;9.758;2023-08-20T03:22:22;7.37;;;6.47;;
12312;SDS011;6220;53.580;9.758;2023-08-20T03:24:48;11.13;;;6.67;;
12312;SDS011;6220;53.580;9.758;2023-08-20T03:27:14;7.67;;;6.77;;
12312;SDS011;6220;53.580;9.758;2023-08-20T03:29:39;7.63;;;6.93;;
12312;SDS011;6220;53.580;9.758;2023-08-20T03:32:05;16.43;;;6.43;;
12312;SDS011;6220;53.580;9.758;2023-08-20T03:34:30;9.97;;;6.47;;
12312;SDS011;6220;53.580;9.758;2023-08-20T03:36:55;8.27;;;5.80;;
12312;SDS011;6220;53.580;9.758;2023-08-20T03:39:21;6.30;;;5.27;;
12312;SDS011;6220;53.580;9.758;2023-08-20T03:41:46;10.27;;;6.10;;
12312;SDS011;6220;53.580;9.758;2023-08-20T03:44:12;8.33;;;7.10;;
12312;SDS011;6220;53.580;9.758;2023-08-20T03:46:37;7.80;;;7.00;;
12312;SDS011;6220;53.580;9.758;2023-08-20T03:49:04;11.17;;;8.30;;
12312;SDS011;6220;53.580;9.758;2023-08-20T03:51:29;9.77;;;7.47;;
12312;SDS011;6220;53.580;9.758;2023-08-20T03:53:55;7.17;;;6.47;;
12312;SDS011;6220;53.580;9.758;2023-08-20T03:56:20;27.57;;;6.70;;
12312;SDS011;6220;53.580;9.758;2023-08-20T03:58:45;7.07;;;6.37;;
12312;SDS011;6220;53.580;9.758;2023-08-20T04:01:11;8.03;;;7.00;;
12312;SDS011;6220;53.580;9.758;2023-08-20T04:03:37;6.43;;;5.83;;
12312;SDS011;6220;53.580;9.758;2023-08-20T04:06:03;6.07;;;5.43;;
12312;SDS011;6220;53.580;9.758;2023-08-20T04:08:28;21.20;;;4.53;;
12312;SDS011;6220;53.580;9.758;2023-08-20T04:10:54;5.13;;;4.70;;
12312;SDS011;6220;53.580;9.758;2023-08-20T04:13:20;8.87;;;3.90;;
12312;SDS011;6220;53.580;9.758;2023-08-20T04:15:45;3.87;;;3.57;;
12312;SDS011;6220;53.580;9.758;2023-08-20T04:18:11;3.53;;;3.23;;
12312;SDS011;6220;53.580;9.758;2023-08-20T04:20:37;8.67;;;4.47;;
12312;SDS011;6220;53.580;9.758;2023-08-20T04:23:02;5.47;;;4.73;;
12312;SDS011;6220;53.580;9.758;2023-08-20T04:25:28;8.70;;;5.60;;
12312;SDS011;6220;53.580;9.758;2023-08-20T04:27:53;5.83;;;5.23;;
12312;SDS011;6220;53.580;9.758;2023-08-20T04:30:18;7.30;;;5.30;;
12312;SDS011;6220;53.580;9.758;2023-08-20T04:32:44;6.87;;;5.13;;
12312;SDS011;6220;53.580;9.758;2023-08-20T04:35:10;7.30;;;5.10;;
12312;SDS011;6220;53.580;9.758;2023-08-20T04:37:37;6.10;;;4.77;;
12312;SDS011;6220;53.580;9.758;2023-08-20T04:40:02;5.87;;;5.27;;
12312;SDS011;6220;53.580;9.758;2023-08-20T04:42:31;5.17;;;4.77;;
12312;SDS011;6220;53.580;9.758;2023-08-20T04:44:56;5.00;;;4.50;;
12312;SDS011;6220;53.580;9.758;2023-08-20T04:47:22;8.40;;;4.70;;
12312;SDS011;6220;53.580;9.758;2023-08-20T04:49:47;14.53;;;4.90;;
12312;SDS011;6220;53.580;9.758;2023-08-20T04:52:12;6.10;;;4.77;;
12312;SDS011;6220;53.580;9.758;2023-08-20T04:54:38;4.93;;;4.43;;
12312;SDS011;6220;53.580;9.758;2023-08-20T04:57:04;6.07;;;5.10;;
12312;SDS011;6220;53.580;9.758;2023-08-20T04:59:29;4.90;;;4.50;;
12312;SDS011;6220;53.580;9.758;2023-08-20T05:01:55;14.80;;;6.00;;
12312;SDS011;6220;53.580;9.758;2023-08-20T05:04:20;6.80;;;6.20;;
12312;SDS011;6220;53.580;9.758;2023-08-20T05:06:45;5.90;;;5.37;;
12312;SDS011;6220;53.580;9.758;2023-08-20T05:09:11;11.33;;;6.57;;
12312;SDS011;6220;53.580;9.758;2023-08-20T05:11:37;6.10;;;5.60;;
12312;SDS011;6220;53.580;9.758;2023-08-20T05:14:03;14.33;;;6.00;;
12312;SDS011;6220;53.580;9.758;2023-08-20T05:16:28;10.53;;;6.73;;
12312;SDS011;6220;53.580;9.758;2023-08-20T05:18:54;11.10;;;6.93;;
12312;SDS011;6220;53.580;9.758;2023-08-20T05:21:19;8.47;;;7.03;;
12312;SDS011;6220;53.580;9.758;2023-08-20T05:23:44;7.50;;;6.73;;
12312;SDS011;6220;53.580;9.758;2023-08-20T05:26:10;7.00;;;6.40;;
12312;SDS011;6220;53.580;9.758;2023-08-20T05:28:35;7.90;;;6.67;;
12312;SDS011;6220;53.580;9.758;2023-08-20T05:31:01;6.77;;;6.17;;
12312;SDS011;6220;53.580;9.758;2023-08-20T05:33:26;14.57;;;6.40;;
12312;SDS011;6220;53.580;9.758;2023-08-20T05:35:53;7.07;;;6.40;;
12312;SDS011;6220;53.580;9.758;2023-08-20T05:38:18;10.37;;;6.43;;
12312;SDS011;6220;53.580;9.758;2023-08-20T05:40:45;9.47;;;7.57;;
12312;SDS011;6220;53.580;9.758;2023-08-20T05:43:10;10.03;;;7.23;;
12312;SDS011;6220;53.580;9.758;2023-08-20T05:45:35;12.17;;;7.73;;
12312;SDS011;6220;53.580;9.758;2023-08-20T05:48:01;9.20;;;7.37;;
12312;SDS011;6220;53.580;9.758;2023-08-20T05:50:26;7.70;;;7.00;;
12312;SDS011;6220;53.580;9.758;2023-08-20T05:52:52;9.70;;;7.57;;
12312;SDS011;6220;53.580;9.758;2023-08-20T05:55:17;7.43;;;6.73;;
12312;SDS011;6220;53.580;9.758;2023-08-20T05:57:43;7.90;;;7.20;;
12312;SDS011;6220;53.580;9.758;2023-08-20T06:00:09;9.50;;;7.80;;
12312;SDS011;6220;53.580;9.758;2023-08-20T06:02:35;9.53;;;6.80;;
12312;SDS011;6220;53.580;9.758;2023-08-20T06:05:01;8.13;;;7.33;;
12312;SDS011;6220;53.580;9.758;2023-08-20T06:07:26;6.70;;;6.20;;
12312;SDS011;6220;53.580;9.758;2023-08-20T06:09:51;9.77;;;6.90;;
12312;SDS011;6220;53.580;9.758;2023-08-20T06:12:17;7.67;;;6.97;;
12312;SDS011;6220;53.580;9.758;2023-08-20T06:14:44;9.80;;;7.47;;
12312;SDS011;6220;53.580;9.758;2023-08-20T06:17:10;8.43;;;7.70;;
12312;SDS011;6220;53.580;9.758;2023-08-20T06:19:35;7.90;;;7.20;;
12312;SDS011;6220;53.580;9.758;2023-08-20T06:22:00;8.47;;;7.47;;
12312;SDS011;6220;53.580;9.758;2023-08-20T06:24:26;9.20;;;7.83;;
12312;SDS011;6220;53.580;9.758;2023-08-20T06:26:52;12.57;;;9.43;;
12312;SDS011;6220;53.580;9.758;2023-08-20T06:29:17;8.83;;;8.03;;
12312;SDS011;6220;53.580;9.758;2023-08-20T06:31:43;12.33;;;9.90;;
12312;SDS011;6220;53.580;9.758;2023-08-20T06:34:08;10.60;;;9.50;;
12312;SDS011;6220;53.580;9.758;2023-08-20T06:36:34;9.17;;;8.27;;
12312;SDS011;6220;53.580;9.758;2023-08-20T06:39:00;15.17;;;11.00;;
12312;SDS011;6220;53.580;9.758;2023-08-20T06:41:26;11.50;;;10.30;;
12312;SDS011;6220;53.580;9.758;2023-08-20T06:43:52;15.13;;;12.13;;
12312;SDS011;6220;53.580;9.758;2023-08-20T06:46:17;13.73;;;11.13;;
12312;SDS011;6220;53.580;9.758;2023-08-20T06:48:44;14.20;;;11.00;;
12312;SDS011;6220;53.580;9.758;2023-08-20T06:51:14;16.60;;;13.33;;
12312;SDS011;6220;53.580;9.758;2023-08-20T06:53:42;17.63;;;12.60;;
12312;SDS011;6220;53.580;9.758;2023-08-20T06:56:08;15.47;;;12.50;;
12312;SDS011;6220;53.580;9.758;2023-08-20T06:58:34;14.03;;;12.17;;
12312;SDS011;6220;53.580;9.758;2023-08-20T07:01:00;17.20;;;13.43;;
12312;SDS011;6220;53.580;9.758;2023-08-20T07:03:41;16.00;;;12.37;;
12312;SDS011;6220;53.580;9.758;2023-08-20T07:06:08;14.80;;;11.63;;
12312;SDS011;6220;53.580;9.758;2023-08-20T07:08:39;15.50;;;11.83;;
12312;SDS011;6220;53.580;9.758;2023-08-20T07:11:05;14.77;;;10.60;;
12312;SDS011;6220;53.580;9.758;2023-08-20T07:13:31;13.77;;;10.17;;
12312;SDS011;6220;53.580;9.758;2023-08-20T07:15:56;13.20;;;11.37;;
12312;SDS011;6220;53.580;9.758;2023-08-20T07:18:21;18.83;;;14.10;;
12312;SDS011;6220;53.580;9.758;2023-08-20T07:20:47;16.03;;;13.43;;
12312;SDS011;6220;53.580;9.758;2023-08-20T07:23:12;14.47;;;11.27;;
12312;SDS011;6220;53.580;9.758;2023-08-20T07:25:38;12.73;;;10.87;;
12312;SDS011;6220;53.580;9.758;2023-08-20T07:28:04;16.47;;;10.73;;
12312;SDS011;6220;53.580;9.758;2023-08-20T07:30:30;14.23;;;11.33;;
12312;SDS011;6220;53.580;9.758;2023-08-20T07:32:55;11.03;;;9.60;;
12312;SDS011;6220;53.580;9.758;2023-08-20T07:35:21;14.30;;;8.80;;
12312;SDS011;6220;53.580;9.758;2023-08-20T07:37:46;10.53;;;8.73;;
12312;SDS011;6220;53.580;9.758;2023-08-20T07:40:12;14.77;;;10.87;;
12312;SDS011;6220;53.580;9.758;2023-08-20T07:42:39;10.33;;;7.67;;
12312;SDS011;6220;53.580;9.758;2023-08-20T07:45:05;11.87;;;8.50;;
12312;SDS011;6220;53.580;9.758;2023-08-20T07:47:33;11.60;;;8.67;;
12312;SDS011;6220;53.580;9.758;2023-08-20T07:49:59;13.77;;;7.57;;
12312;SDS011;6220;53.580;9.758;2023-08-20T07:52:25;10.03;;;7.63;;
12312;SDS011;6220;53.580;9.758;2023-08-20T07:54:51;12.10;;;8.80;;
12312;SDS011;6220;53.580;9.758;2023-08-20T07:57:16;9.37;;;6.80;;
12312;SDS011;6220;53.580;9.758;2023-08-20T07:59:42;11.07;;;7.10;;
12312;SDS011;6220;53.580;9.758;2023-08-20T08:02:08;12.70;;;7.97;;
12312;SDS011;6220;53.580;9.758;2023-08-20T08:04:33;13.53;;;7.73;;
12312;SDS011;6220;53.580;9.758;2023-08-20T08:06:59;8.33;;;6.13;;
12312;SDS011;6220;53.580;9.758;2023-08-20T08:09:29;10.47;;;6.33;;
12312;SDS011;6220;53.580;9.758;2023-08-20T08:11:55;9.63;;;6.97;;
12312;SDS011;6220;53.580;9.758;2023-08-20T08:14:21;9.60;;;6.83;;
12312;SDS011;6220;53.580;9.758;2023-08-20T08:16:46;10.17;;;6.27;;
12312;SDS011;6220;53.580;9.758;2023-08-20T08:19:12;10.10;;;5.90;;
12312;SDS011;6220;53.580;9.758;2023-08-20T08:21:38;9.77;;;6.60;;
12312;SDS011;6220;53.580;9.758;2023-08-20T08:24:04;10.50;;;6.20;;
12312;SDS011;6220;53.580;9.758;2023-08-20T08:26:30;7.77;;;5.23;;
12312;SDS011;6220;53.580;9.758;2023-08-20T08:28:56;6.73;;;4.40;;
12312;SDS011;6220;53.580;9.758;2023-08-20T08:31:21;6.93;;;4.83;;
12312;SDS011;6220;53.580;9.758;2023-08-20T08:33:47;7.20;;;4.20;;
12312;SDS011;6220;53.580;9.758;2023-08-20T08:36:12;11.47;;;4.03;;
12312;SDS011;6220;53.580;9.758;2023-08-20T08:38:39;8.40;;;4.17;;
12312;SDS011;6220;53.580;9.758;2023-08-20T08:41:07;9.60;;;4.93;;
12312;SDS011;6220;53.580;9.758;2023-08-20T08:43:35;7.23;;;3.83;;
12312;SDS011;6220;53.580;9.758;2023-08-20T08:46:05;7.60;;;3.80;;
12312;SDS011;6220;53.580;9.758;2023-08-20T08:48:32;8.80;;;4.60;;
12312;SDS011;6220;53.580;9.758;2023-08-20T08:50:59;5.57;;;3.63;;
12312;SDS011;6220;53.580;9.758;2023-08-20T08:53:26;7.30;;;3.67;;
12312;SDS011;6220;53.580;9.758;2023-08-20T08:55:51;11.50;;;4.30;;
12312;SDS011;6220;53.580;9.758;2023-08-20T08:58:17;6.63;;;3.63;;
12312;SDS011;6220;53.580;9.758;2023-08-20T09:00:42;9.57;;;3.50;;
12312;SDS011;6220;53.580;9.758;2023-08-20T09:03:08;6.87;;;3.40;;
12312;SDS011;6220;53.580;9.758;2023-08-20T09:05:44;7.80;;;3.93;;
12312;SDS011;6220;53.580;9.758;2023-08-20T09:08:23;5.07;;;3.20;;
12312;SDS011;6220;53.580;9.758;2023-08-20T09:10:51;8.80;;;3.70;;
12312;SDS011;6220;53.580;9.758;2023-08-20T09:13:21;8.67;;;4.33;;
12312;SDS011;6220;53.580;9.758;2023-08-20T09:15:54;8.17;;;4.00;;
12312;SDS011;6220;53.580;9.758;2023-08-20T09:18:19;6.73;;;3.80;;
12312;SDS011;6220;53.580;9.758;2023-08-20T09:20:47;8.80;;;4.03;;
12312;SDS011;6220;53.580;9.758;2023-08-20T09:23:14;8.67;;;4.43;;
12312;SDS011;6220;53.580;9.758;2023-08-20T09:25:40;9.37;;;3.90;;
12312;SDS011;6220;53.580;9.758;2023-08-20T09:28:06;9.10;;;4.00;;
12312;SDS011;6220;53.580;9.758;2023-08-20T09:30:32;7.60;;;3.73;;
12312;SDS011;6220;53.580;9.758;2023-08-20T09:33:09;7.03;;;3.87;;
12312;SDS011;6220;53.580;9.758;2023-08-20T09:35:35;6.53;;;3.80;;
12312;SDS011;6220;53.580;9.758;2023-08-20T09:38:04;5.80;;;3.50;;
12312;SDS011;6220;53.580;9.758;2023-08-20T09:40:31;9.60;;;3.67;;
12312;SDS011;6220;53.580;9.758;2023-08-20T09:42:57;8.17;;;3.03;;
12312;SDS011;6220;53.580;9.758;2023-08-20T09:45:27;7.33;;;3.00;;
12312;SDS011;6220;53.580;9.758;2023-08-20T09:47:56;6.43;;;3.00;;
12312;SDS011;6220;53.580;9.758;2023-08-20T09:50:23;4.53;;;2.40;;
12312;SDS011;6220;53.580;9.758;2023-08-20T09:52:54;6.10;;;2.97;;
12312;SDS011;6220;53.580;9.758;2023-08-20T09:55:25;8.33;;;2.80;;
12312;SDS011;6220;53.580;9.758;2023-08-20T09:58:01;6.83;;;2.70;;
12312;SDS011;6220;53.580;9.758;2023-08-20T10:00:28;7.13;;;2.77;;
12312;SDS011;6220;53.580;9.758;2023-08-20T10:02:55;5.40;;;2.33;;
12312;SDS011;6220;53.580;9.758;2023-08-20T10:05:21;9.83;;;2.77;;
12312;SDS011;6220;53.580;9.758;2023-08-20T10:07:48;5.50;;;2.90;;
12312;SDS011;6220;53.580;9.758;2023-08-20T10:10:14;9.23;;;5.03;;
12312;SDS011;6220;53.580;9.758;2023-08-20T10:12:42;8.33;;;3.13;;
12312;SDS011;6220;53.580;9.758;2023-08-20T10:15:09;9.73;;;3.07;;
12312;SDS011;6220;53.580;9.758;2023-08-20T10:17:37;9.43;;;3.10;;
12312;SDS011;6220;53.580;9.758;2023-08-20T10:20:04;8.47;;;2.77;;
12312;SDS011;6220;53.580;9.758;2023-08-20T10:22:40;5.90;;;2.90;;
12312;SDS011;6220;53.580;9.758;2023-08-20T10:25:11;6.00;;;2.67;;
12312;SDS011;6220;53.580;9.758;2023-08-20T10:27:38;6.53;;;2.70;;
12312;SDS011;6220;53.580;9.758;2023-08-20T10:30:08;5.10;;;2.80;;
12312;SDS011;6220;53.580;9.758;2023-08-20T10:32:44;6.87;;;2.53;;
12312;SDS011;6220;53.580;9.758;2023-08-20T10:35:11;4.53;;;2.50;;
12312;SDS011;6220;53.580;9.758;2023-08-20T10:37:37;7.80;;;2.87;;
12312;SDS011;6220;53.580;9.758;2023-08-20T10:40:06;6.57;;;2.77;;
12312;SDS011;6220;53.580;9.758;2023-08-20T10:42:32;5.27;;;2.87;;
12312;SDS011;6220;53.580;9.758;2023-08-20T10:45:06;6.67;;;2.80;;
12312;SDS011;6220;53.580;9.758;2023-08-20T10:47:45;6.03;;;2.80;;
12312;SDS011;6220;53.580;9.758;2023-08-20T10:50:17;8.70;;;2.87;;
12312;SDS011;6220;53.580;9.758;2023-08-20T10:52:47;7.10;;;2.73;;
12312;SDS011;6220;53.580;9.758;2023-08-20T10:55:17;8.17;;;3.07;;
12312;SDS011;6220;53.580;9.758;2023-08-20T10:57:49;4.20;;;2.53;;
12312;SDS011;6220;53.580;9.758;2023-08-20T11:00:20;5.20;;;2.70;;
12312;SDS011;6220;53.580;9.758;2023-08-20T11:02:45;4.43;;;2.57;;
12312;SDS011;6220;53.580;9.758;2023-08-20T11:05:17;6.33;;;2.50;;
12312;SDS011;6220;53.580;9.758;2023-08-20T11:07:45;8.20;;;2.80;;
12312;SDS011;6220;53.580;9.758;2023-08-20T11:10:12;8.00;;;2.83;;
12312;SDS011;6220;53.580;9.758;2023-08-20T11:12:59;5.77;;;2.30;;
12312;SDS011;6220;53.580;9.758;2023-08-20T11:15:28;6.40;;;2.57;;
12312;SDS011;6220;53.580;9.758;2023-08-20T11:17:53;5.13;;;2.73;;
12312;SDS011;6220;53.580;9.758;2023-08-20T11:20:19;6.53;;;2.83;;
12312;SDS011;6220;53.580;9.758;2023-08-20T11:22:45;5.83;;;2.77;;
12312;SDS011;6220;53.580;9.758;2023-08-20T11:25:10;9.93;;;2.80;;
12312;SDS011;6220;53.580;9.758;2023-08-20T11:27:40;7.87;;;2.50;;
12312;SDS011;6220;53.580;9.758;2023-08-20T11:30:06;6.20;;;2.50;;
12312;SDS011;6220;53.580;9.758;2023-08-20T11:32:32;6.67;;;2.53;;
12312;SDS011;6220;53.580;9.758;2023-08-20T11:34:58;6.60;;;2.90;;
12312;SDS011;6220;53.580;9.758;2023-08-20T11:37:23;3.57;;;2.40;;
12312;SDS011;6220;53.580;9.758;2023-08-20T11:39:49;7.03;;;2.50;;
12312;SDS011;6220;53.580;9.758;2023-08-20T11:42:14;6.17;;;2.40;;
12312;SDS011;6220;53.580;9.758;2023-08-20T11:44:44;7.20;;;2.83;;
12312;SDS011;6220;53.580;9.758;2023-08-20T11:47:17;6.47;;;2.87;;
12312;SDS011;6220;53.580;9.758;2023-08-20T11:49:43;5.67;;;2.40;;
12312;SDS011;6220;53.580;9.758;2023-08-20T11:52:09;6.73;;;2.63;;
12312;SDS011;6220;53.580;9.758;2023-08-20T11:54:35;5.30;;;2.40;;
12312;SDS011;6220;53.580;9.758;2023-08-20T11:57:02;7.23;;;2.97;;
12312;SDS011;6220;53.580;9.758;2023-08-20T11:59:28;3.83;;;2.27;;
12312;SDS011;6220;53.580;9.758;2023-08-20T12:01:57;6.03;;;2.60;;
12312;SDS011;6220;53.580;9.758;2023-08-20T12:04:25;7.00;;;2.77;;
12312;SDS011;6220;53.580;9.758;2023-08-20T12:07:02;5.90;;;3.10;;
12312;SDS011;6220;53.580;9.758;2023-08-20T12:09:33;4.70;;;2.53;;
12312;SDS011;6220;53.580;9.758;2023-08-20T12:11:58;7.47;;;2.47;;
12312;SDS011;6220;53.580;9.758;2023-08-20T12:14:24;5.97;;;2.80;;
12312;SDS011;6220;53.580;9.758;2023-08-20T12:16:51;9.63;;;2.77;;
12312;SDS011;6220;53.580;9.758;2023-08-20T12:19:16;5.73;;;2.67;;
12312;SDS011;6220;53.580;9.758;2023-08-20T12:21:42;6.07;;;2.70;;
12312;SDS011;6220;53.580;9.758;2023-08-20T12:24:08;5.03;;;2.50;;
12312;SDS011;6220;53.580;9.758;2023-08-20T12:26:34;5.47;;;2.90;;
12312;SDS011;6220;53.580;9.758;2023-08-20T12:29:00;4.97;;;2.20;;
12312;SDS011;6220;53.580;9.758;2023-08-20T12:31:25;6.33;;;2.73;;
12312;SDS011;6220;53.580;9.758;2023-08-20T12:33:51;7.27;;;2.67;;
12312;SDS011;6220;53.580;9.758;2023-08-20T12:36:16;5.20;;;2.53;;
12312;SDS011;6220;53.580;9.758;2023-08-20T12:38:41;5.30;;;2.23;;
12312;SDS011;6220;53.580;9.758;2023-08-20T12:41:07;5.47;;;2.23;;
12312;SDS011;6220;53.580;9.758;2023-08-20T12:43:32;3.17;;;2.20;;
12312;SDS011;6220;53.580;9.758;2023-08-20T12:45:59;6.13;;;2.53;;
12312;SDS011;6220;53.580;9.758;2023-08-20T12:48:24;6.50;;;2.63;;
12312;SDS011;6220;53.580;9.758;2023-08-20T12:50:50;3.47;;;2.07;;
12312;SDS011;6220;53.580;9.758;2023-08-20T12:53:16;4.90;;;2.40;;
12312;SDS011;6220;53.580;9.758;2023-08-20T12:55:41;6.10;;;2.47;;
12312;SDS011;6220;53.580;9.758;2023-08-20T12:58:07;5.50;;;2.47;;
12312;SDS011;6220;53.580;9.758;2023-08-20T13:00:33;3.50;;;2.07;;
12312;SDS011;6220;53.580;9.758;2023-08-20T13:02:58;4.97;;;2.57;;
12312;SDS011;6220;53.580;9.758;2023-08-20T13:05:24;4.57;;;2.37;;
12312;SDS011;6220;53.580;9.758;2023-08-20T13:07:50;4.20;;;2.53;;
12312;SDS011;6220;53.580;9.758;2023-08-20T13:10:16;9.97;;;5.13;;
12312;SDS011;6220;53.580;9.758;2023-08-20T13:12:42;6.10;;;2.93;;
12312;SDS011;6220;53.580;9.758;2023-08-20T13:15:14;6.53;;;2.40;;
12312;SDS011;6220;53.580;9.758;2023-08-20T13:17:42;6.73;;;2.30;;
12312;SDS011;6220;53.580;9.758;2023-08-20T13:20:10;4.23;;;2.30;;
12312;SDS011;6220;53.580;9.758;2023-08-20T13:22:36;5.27;;;2.10;;
12312;SDS011;6220;53.580;9.758;2023-08-20T13:25:01;4.50;;;2.10;;
12312;SDS011;6220;53.580;9.758;2023-08-20T13:27:28;4.37;;;2.37;;
12312;SDS011;6220;53.580;9.758;2023-08-20T13:30:04;4.70;;;2.30;;
12312;SDS011;6220;53.580;9.758;2023-08-20T13:32:30;6.60;;;2.60;;
12312;SDS011;6220;53.580;9.758;2023-08-20T13:34:55;5.33;;;2.23;;
12312;SDS011;6220;53.580;9.758;2023-08-20T13:37:21;5.50;;;2.07;;
12312;SDS011;6220;53.580;9.758;2023-08-20T13:39:46;4.73;;;2.30;;
12312;SDS011;6220;53.580;9.758;2023-08-20T13:42:11;6.03;;;2.60;;
12312;SDS011;6220;53.580;9.758;2023-08-20T13:44:37;4.60;;;2.13;;
12312;SDS011;6220;53.580;9.758;2023-08-20T13:47:02;6.70;;;2.60;;
12312;SDS011;6220;53.580;9.758;2023-08-20T13:49:27;6.17;;;2.67;;
12312;SDS011;6220;53.580;9.758;2023-08-20T13:51:54;6.70;;;2.50;;
12312;SDS011;6220;53.580;9.758;2023-08-20T13:54:19;5.53;;;2.00;;
12312;SDS011;6220;53.580;9.758;2023-08-20T13:56:44;5.60;;;1.90;;
12312;SDS011;6220;53.580;9.758;2023-08-20T13:59:10;4.57;;;2.20;;
12312;SDS011;6220;53.580;9.758;2023-08-20T14:01:35;10.03;;;2.63;;
12312;SDS011;6220;53.580;9.758;2023-08-20T14:04:01;6.57;;;2.43;;
12312;SDS011;6220;53.580;9.758;2023-08-20T14:06:27;5.37;;;2.17;;
12312;SDS011;6220;53.580;9.758;2023-08-20T14:08:52;4.00;;;2.20;;
12312;SDS011;6220;53.580;9.758;2023-08-20T14:11:19;5.70;;;2.27;;
12312;SDS011;6220;53.580;9.758;2023-08-20T14:13:45;6.90;;;2.73;;
12312;SDS011;6220;53.580;9.758;2023-08-20T14:16:10;5.40;;;1.87;;
12312;SDS011;6220;53.580;9.758;2023-08-20T14:18:36;3.73;;;2.03;;
12312;SDS011;6220;53.580;9.758;2023-08-20T14:21:01;4.83;;;2.23;;
12312;SDS011;6220;53.580;9.758;2023-08-20T14:23:28;4.00;;;1.80;;
12312;SDS011;6220;53.580;9.758;2023-08-20T14:25:54;5.63;;;2.07;;
12312;SDS011;6220;53.580;9.758;2023-08-20T14:28:20;4.70;;;2.10;;
12312;SDS011;6220;53.580;9.758;2023-08-20T14:30:46;4.17;;;2.00;;
12312;SDS011;6220;53.580;9.758;2023-08-20T14:33:11;4.37;;;2.03;;
12312;SDS011;6220;53.580;9.758;2023-08-20T14:35:36;3.73;;;2.17;;
12312;SDS011;6220;53.580;9.758;2023-08-20T14:38:03;5.37;;;1.97;;
12312;SDS011;6220;53.580;9.758;2023-08-20T14:40:28;4.00;;;1.97;;
12312;SDS011;6220;53.580;9.758;2023-08-20T14:42:55;3.87;;;1.83;;
12312;SDS011;6220;53.580;9.758;2023-08-20T14:45:20;4.53;;;2.20;;
12312;SDS011;6220;53.580;9.758;2023-08-20T14:47:45;4.77;;;1.90;;
12312;SDS011;6220;53.580;9.758;2023-08-20T14:50:11;4.83;;;1.67;;
12312;SDS011;6220;53.580;9.758;2023-08-20T14:52:36;5.83;;;1.93;;
12312;SDS011;6220;53.580;9.758;2023-08-20T14:55:01;4.00;;;1.73;;
12312;SDS011;6220;53.580;9.758;2023-08-20T14:57:29;6.23;;;1.63;;
12312;SDS011;6220;53.580;9.758;2023-08-20T14:59:54;3.70;;;1.90;;
12312;SDS011;6220;53.580;9.758;2023-08-20T15:02:20;6.33;;;1.87;;
12312;SDS011;6220;53.580;9.758;2023-08-20T15:04:45;3.00;;;1.70;;